Time;durP1;ratioP1;P1;durP2;ratioP2;P2;SDS_P1;SDS_P2;PMS_P1;PMS_P2;Temp;Humidity;BMP_temperature;BMP_pressure;BME280_temperature;BME280_humidity;BME280_pressure;Samples;Min_cycle;Max_cycle;Signal;HPM_P1;HPM_P2
2023/07/06 00:01:37;;;;;;;9.98;4.47;;;;;;;12.55;100.00;101240.25;4951599;28;20125;-75
2023/07/06 00:04:03;;;;;;;11.35;5.47;;;;;;;12.57;100.00;101249.00;4946062;28;20059;-75
2023/07/06 00:06:34;;;;;;;11.95;5.28;;;;;;;12.44;100.00;101247.97;4950061;28;20079;-75
2023/07/06 00:09:00;;;;;;;11.15;4.80;;;;;;;12.46;100.00;101253.94;4946175;28;20735;-75
2023/07/06 00:11:32;;;;;;;12.52;5.20;;;;;;;12.44;100.00;101254.34;4939615;28;20079;-74
2023/07/06 00:13:59;;;;;;;10.68;4.95;;;;;;;12.40;100.00;101259.16;4949653;28;20134;-75
2023/07/06 00:16:26;;;;;;;14.05;5.50;;;;;;;12.35;100.00;101251.22;4946162;28;20061;-72
2023/07/06 00:18:53;;;;;;;13.43;5.35;;;;;;;12.36;100.00;101255.63;4946855;28;20425;-76
2023/07/06 00:21:20;;;;;;;11.10;5.28;;;;;;;12.35;100.00;101258.78;4945190;28;21547;-76
2023/07/06 00:23:47;;;;;;;16.42;5.88;;;;;;;12.25;100.00;101254.13;4948095;28;20055;-76
2023/07/06 00:26:20;;;;;;;13.80;5.00;;;;;;;12.26;100.00;101253.72;4948060;28;20145;-76
2023/07/06 00:28:51;;;;;;;11.70;4.80;;;;;;;12.28;100.00;101267.25;4948221;28;20055;-76
2023/07/06 00:31:50;;;;;;;14.80;5.25;;;;;;;12.30;100.00;101262.03;4945384;28;20127;-76
2023/07/06 00:34:09;;;;;;;10.43;4.80;;;;;;;12.26;100.00;101273.22;4937129;28;20076;-75
2023/07/06 00:36:35;;;;;;;9.23;4.63;;;;;;;12.26;100.00;101272.47;4943563;28;20063;-75
2023/07/06 00:39:03;;;;;;;14.90;5.18;;;;;;;12.17;100.00;101264.59;4942614;28;20081;-74
2023/07/06 00:41:31;;;;;;;11.13;4.55;;;;;;;12.21;100.00;101268.13;4947172;28;20058;-72
2023/07/06 00:43:59;;;;;;;11.40;5.22;;;;;;;12.21;100.00;101276.47;4945802;28;20079;-75
2023/07/06 00:46:36;;;;;;;12.60;4.80;;;;;;;12.15;100.00;101269.78;4948681;28;20556;-74
2023/07/06 00:49:05;;;;;;;12.15;5.18;;;;;;;12.09;100.00;101262.28;4940916;28;20050;-73
2023/07/06 00:51:37;;;;;;;12.15;5.00;;;;;;;12.17;100.00;101263.78;4940216;28;20135;-73
2023/07/06 00:54:08;;;;;;;15.15;5.50;;;;;;;12.13;100.00;101257.47;4943377;28;20055;-74
2023/07/06 00:56:41;;;;;;;13.10;5.38;;;;;;;12.14;100.00;101261.81;4951027;28;20051;-75
2023/07/06 00:59:11;;;;;;;11.93;4.97;;;;;;;12.09;100.00;101260.28;4947068;28;20397;-75
2023/07/06 01:01:41;;;;;;;14.93;6.47;;;;;;;12.06;100.00;101263.13;4950775;28;20086;-76
2023/07/06 01:04:12;;;;;;;13.80;5.47;;;;;;;12.00;100.00;101267.56;4950086;28;20059;-75
2023/07/06 01:06:51;;;;;;;12.15;5.38;;;;;;;12.00;100.00;101261.97;4945846;28;20055;-74
2023/07/06 01:09:18;;;;;;;15.50;6.25;;;;;;;11.96;100.00;101255.66;4947605;28;20047;-76
2023/07/06 01:11:46;;;;;;;13.63;6.20;;;;;;;11.96;100.00;101258.44;4949152;28;20054;-76
2023/07/06 01:14:14;;;;;;;16.67;6.53;;;;;;;11.98;100.00;101262.41;4950982;28;20047;-76
2023/07/06 01:16:49;;;;;;;15.80;6.95;;;;;;;12.01;100.00;101266.34;4950564;28;20059;-75
2023/07/06 01:19:41;;;;;;;16.80;6.45;;;;;;;11.99;100.00;101258.41;4950478;28;20090;-76
2023/07/06 01:22:22;;;;;;;12.98;6.30;;;;;;;12.01;100.00;101261.56;4948706;28;20047;-75
2023/07/06 01:25:04;;;;;;;13.30;5.90;;;;;;;12.03;100.00;101269.53;4950327;28;20050;-73
2023/07/06 01:27:39;;;;;;;13.45;5.60;;;;;;;11.99;100.00;101275.13;4941883;28;20434;-73
2023/07/06 01:30:19;;;;;;;13.18;5.65;;;;;;;12.02;100.00;101265.94;4950218;28;20138;-75
2023/07/06 01:32:57;;;;;;;16.40;6.10;;;;;;;12.00;100.00;101270.34;4950032;28;20529;-74
2023/07/06 01:35:29;;;;;;;17.30;7.78;;;;;;;12.01;100.00;101275.50;4949928;28;20612;-75
2023/07/06 01:37:57;;;;;;;13.20;5.93;;;;;;;12.00;100.00;101273.94;4949052;28;20141;-72
2023/07/06 01:40:24;;;;;;;16.73;6.15;;;;;;;11.99;100.00;101269.53;4948621;28;20047;-74
2023/07/06 01:42:50;;;;;;;14.30;5.93;;;;;;;11.97;100.00;101263.59;4948642;28;20109;-76
2023/07/06 01:45:20;;;;;;;13.40;6.15;;;;;;;11.96;100.00;101262.00;4949915;28;20632;-73
2023/07/06 01:47:51;;;;;;;13.80;6.00;;;;;;;11.93;100.00;101270.41;4950489;28;20086;-76
2023/07/06 01:50:21;;;;;;;13.07;6.15;;;;;;;11.91;100.00;101268.03;4949915;28;20110;-75
2023/07/06 01:53:05;;;;;;;15.02;6.13;;;;;;;11.89;100.00;101270.44;4947399;28;21436;-76
2023/07/06 01:56:14;;;;;;;16.48;6.78;;;;;;;11.88;100.00;101268.06;4939447;28;20469;-73
2023/07/06 01:58:48;;;;;;;16.13;6.43;;;;;;;11.87;100.00;101272.06;4939893;28;20138;-77
2023/07/06 02:01:19;;;;;;;18.52;9.15;;;;;;;11.84;100.00;101270.91;4943692;28;20745;-76
2023/07/06 02:03:50;;;;;;;15.15;6.18;;;;;;;11.80;100.00;101256.22;4945716;28;20066;-76
2023/07/06 02:06:18;;;;;;;18.35;6.72;;;;;;;11.80;100.00;101266.56;4949938;28;20047;-74
2023/07/06 02:08:45;;;;;;;17.23;6.40;;;;;;;11.81;100.00;101268.13;4949968;28;20086;-74
2023/07/06 02:11:14;;;;;;;14.77;6.28;;;;;;;11.75;100.00;101264.25;4946438;28;20071;-75
2023/07/06 02:13:41;;;;;;;13.32;5.85;;;;;;;11.77;100.00;101270.16;4949782;28;20686;-73
2023/07/06 02:16:09;;;;;;;15.30;6.22;;;;;;;11.77;100.00;101268.19;4949161;28;20060;-76
2023/07/06 02:18:36;;;;;;;15.73;6.28;;;;;;;11.73;100.00;101269.41;4948054;28;20118;-71
2023/07/06 02:21:04;;;;;;;14.27;6.60;;;;;;;11.69;100.00;101266.69;4951465;28;20066;-74
2023/07/06 02:23:30;;;;;;;13.98;6.00;;;;;;;11.67;100.00;101271.84;4953216;28;20569;-74
2023/07/06 02:25:57;;;;;;;13.48;6.00;;;;;;;11.57;100.00;101264.38;4951766;28;20078;-74
2023/07/06 02:28:24;;;;;;;16.95;6.30;;;;;;;11.60;100.00;101276.69;4953359;28;20139;-75
2023/07/06 02:30:54;;;;;;;16.45;6.45;;;;;;;11.58;100.00;101274.31;4952692;28;20051;-76
2023/07/06 02:33:21;;;;;;;14.90;5.80;;;;;;;11.58;100.00;101274.31;4951695;28;20055;-76
2023/07/06 02:35:48;;;;;;;14.23;6.05;;;;;;;11.52;100.00;101267.59;4953171;28;20051;-75
2023/07/06 02:38:20;;;;;;;13.52;6.05;;;;;;;11.52;100.00;101264.81;4953107;28;20051;-76
2023/07/06 02:40:49;;;;;;;14.75;6.70;;;;;;;11.52;100.00;101267.59;4961658;28;20090;-75
2023/07/06 02:43:16;;;;;;;16.25;5.82;;;;;;;11.52;100.00;101261.25;4952574;28;20062;-72
2023/07/06 02:45:47;;;;;;;14.35;5.80;;;;;;;11.49;100.00;101265.66;4946754;28;20079;-75
2023/07/06 02:48:14;;;;;;;11.93;5.68;;;;;;;11.49;100.00;101259.28;4946096;28;20077;-77
2023/07/06 02:50:46;;;;;;;14.63;6.60;;;;;;;11.48;100.00;101269.63;4953455;28;20158;-74
2023/07/06 02:53:12;;;;;;;11.38;5.47;;;;;;;11.45;100.00;101266.88;4952584;28;20076;-72
2023/07/06 02:55:39;;;;;;;14.43;5.97;;;;;;;11.47;100.00;101258.91;4945938;28;20109;-74
2023/07/06 02:58:05;;;;;;;14.48;5.95;;;;;;;11.48;100.00;101272.41;4948380;28;20063;-75
2023/07/06 03:00:32;;;;;;;12.35;5.63;;;;;;;11.49;100.00;101276.81;4947699;28;20139;-72
2023/07/06 03:02:58;;;;;;;12.35;5.28;;;;;;;11.49;100.00;101274.03;4946913;28;20441;-75
2023/07/06 03:05:25;;;;;;;11.57;5.80;;;;;;;11.46;100.00;101280.41;4950624;28;20186;-77
2023/07/06 03:07:54;;;;;;;12.73;5.65;;;;;;;11.41;100.00;101283.59;4951359;28;20147;-74
2023/07/06 03:10:23;;;;;;;13.20;6.13;;;;;;;11.36;100.00;101274.91;4944928;28;20099;-74
2023/07/06 03:12:49;;;;;;;12.48;6.28;;;;;;;11.33;100.00;101273.75;4944963;28;20569;-74
2023/07/06 03:15:16;;;;;;;13.50;6.45;;;;;;;11.30;100.00;101276.53;4950466;28;20051;-77
2023/07/06 03:17:48;;;;;;;15.23;6.40;;;;;;;11.25;100.00;101276.97;4951256;28;20431;-75
2023/07/06 03:20:19;;;;;;;15.88;6.80;;;;;;;11.23;100.00;101282.16;4948309;28;20050;-74
2023/07/06 03:22:51;;;;;;;15.57;6.80;;;;;;;11.26;100.00;101287.72;4952083;28;20106;-73
2023/07/06 03:25:20;;;;;;;15.63;6.78;;;;;;;11.23;100.00;101290.50;4945450;28;20166;-72
2023/07/06 03:27:47;;;;;;;20.70;7.85;;;;;;;11.22;100.00;101286.94;4952427;28;20569;-74
2023/07/06 03:30:16;;;;;;;14.73;6.88;;;;;;;11.24;100.00;101292.88;4952280;28;20564;-75
2023/07/06 03:32:42;;;;;;;17.40;7.90;;;;;;;11.24;100.00;101294.88;4951557;28;20052;-74
2023/07/06 03:35:11;;;;;;;14.50;6.82;;;;;;;11.29;100.00;101302.78;4951631;28;20054;-74
2023/07/06 03:37:39;;;;;;;25.20;7.60;;;;;;;11.31;100.00;101306.75;4947534;28;20487;-75
2023/07/06 03:40:13;;;;;;;17.92;7.25;;;;;;;11.33;100.00;101306.34;4950690;28;20093;-75
2023/07/06 03:42:45;;;;;;;16.63;7.80;;;;;;;11.29;100.00;101298.03;4947349;28;20134;-74
2023/07/06 03:45:16;;;;;;;15.50;7.38;;;;;;;11.30;100.00;101302.38;4950272;28;20110;-75
2023/07/06 03:47:45;;;;;;;16.55;7.32;;;;;;;11.28;100.00;101307.56;4952225;28;20051;-74
2023/07/06 03:50:14;;;;;;;13.95;6.53;;;;;;;11.29;100.00;101309.16;4948580;28;20150;-73
2023/07/06 03:52:41;;;;;;;15.57;6.53;;;;;;;11.27;100.00;101303.19;4949444;28;20161;-72
2023/07/06 03:55:12;;;;;;;15.10;7.20;;;;;;;11.22;100.00;101300.88;4949548;28;20055;-75
2023/07/06 03:57:40;;;;;;;14.52;7.07;;;;;;;11.16;100.00;101294.09;4951924;28;20082;-75
2023/07/06 04:00:24;;;;;;;19.13;7.80;;;;;;;11.18;100.00;101307.63;4951766;28;20102;-76
2023/07/06 04:02:57;;;;;;;15.80;7.18;;;;;;;11.13;100.00;101294.91;4951762;28;20062;-75
2023/07/06 04:05:32;;;;;;;13.85;7.18;;;;;;;11.19;100.00;101301.66;4951819;28;20137;-75
2023/07/06 04:08:03;;;;;;;22.25;7.57;;;;;;;11.18;100.00;101305.59;4949882;28;20078;-75
2023/07/06 04:10:32;;;;;;;20.92;7.57;;;;;;;11.20;100.00;101297.66;4943341;28;20105;-75
2023/07/06 04:12:59;;;;;;;20.00;7.60;;;;;;;11.22;100.00;101303.66;4951388;28;20055;-73
2023/07/06 04:15:26;;;;;;;18.38;6.68;;;;;;;11.23;100.00;101301.63;4951265;28;20110;-73
2023/07/06 04:17:54;;;;;;;16.30;6.28;;;;;;;11.24;100.00;101306.03;4951491;28;20051;-74
2023/07/06 04:20:27;;;;;;;19.08;7.35;;;;;;;11.20;100.00;101306.00;4950453;28;20110;-76
2023/07/06 04:22:56;;;;;;;17.50;6.57;;;;;;;11.22;100.00;101303.66;4949508;28;20113;-74
2023/07/06 04:25:26;;;;;;;11.57;4.55;;;;;;;11.20;100.00;101300.44;4949635;28;20093;-74
2023/07/06 04:27:53;;;;;;;16.70;6.00;;;;;;;11.32;100.00;101307.56;4951427;28;20094;-75
2023/07/06 04:30:20;;;;;;;17.75;5.35;;;;;;;11.39;100.00;101304.72;4949636;28;20400;-73
2023/07/06 04:32:48;;;;;;;10.25;3.75;;;;;;;11.41;100.00;101308.66;4946298;28;20097;-72
2023/07/06 04:35:22;;;;;;;14.48;4.45;;;;;;;11.43;100.00;101314.63;4945886;28;20047;-74
2023/07/06 04:37:50;;;;;;;11.55;3.47;;;;;;;11.52;100.00;101311.38;4947644;28;20055;-74
2023/07/06 04:40:18;;;;;;;9.35;3.72;;;;;;;11.57;100.00;101308.94;4951275;28;20130;-74
2023/07/06 04:42:46;;;;;;;14.80;4.55;;;;;;;11.62;100.00;101305.72;4950600;28;20521;-74
2023/07/06 04:45:14;;;;;;;12.55;5.00;;;;;;;11.64;100.00;101303.31;4941362;28;20075;-74
2023/07/06 04:47:41;;;;;;;13.88;4.82;;;;;;;11.69;100.00;101300.09;4943583;28;20079;-75
2023/07/06 04:50:09;;;;;;;11.63;5.00;;;;;;;11.77;100.00;101309.16;4950019;28;20062;-74
2023/07/06 04:52:37;;;;;;;11.70;4.70;;;;;;;11.71;100.00;101313.59;4950660;28;20046;-75
2023/07/06 04:55:08;;;;;;;15.15;4.50;;;;;;;11.81;100.00;101307.94;4949255;28;20114;-75
2023/07/06 04:57:36;;;;;;;14.73;4.88;;;;;;;11.82;100.00;101317.09;4950573;28;20114;-75
2023/07/06 05:00:18;;;;;;;12.55;4.38;;;;;;;11.88;100.00;101313.44;4945704;28;20150;-75
2023/07/06 05:02:46;;;;;;;11.35;4.13;;;;;;;11.93;100.00;101315.00;4941887;28;20138;-74
2023/07/06 05:05:13;;;;;;;8.90;2.92;;;;;;;11.96;100.00;101311.41;4949638;28;20134;-74
2023/07/06 05:07:41;;;;;;;11.45;4.35;;;;;;;11.98;100.00;101306.97;4950419;28;20062;-74
2023/07/06 05:10:09;;;;;;;11.63;4.35;;;;;;;12.09;100.00;101318.03;4950545;28;20051;-74
2023/07/06 05:12:35;;;;;;;10.07;3.38;;;;;;;12.10;100.00;101317.63;4949689;28;20097;-74
2023/07/06 05:15:03;;;;;;;2.38;1.10;;;;;;;12.11;100.00;101319.19;4948892;28;20106;-73
2023/07/06 05:17:29;;;;;;;10.38;3.90;;;;;;;12.16;100.00;101317.97;4950436;28;20134;-74
2023/07/06 05:19:56;;;;;;;14.77;4.60;;;;;;;12.25;100.00;101321.03;4950479;28;20047;-74
2023/07/06 05:22:24;;;;;;;16.50;5.18;;;;;;;12.24;100.00;101316.69;4950016;28;20106;-76
2023/07/06 05:24:51;;;;;;;21.15;4.82;;;;;;;12.24;100.00;101323.06;4950109;28;20066;-77
2023/07/06 05:27:18;;;;;;;3.20;0.82;;;;;;;12.28;100.00;101325.78;4947679;28;20075;-72
2023/07/06 05:29:45;;;;;;;9.43;3.80;;;;;;;12.30;100.00;101324.16;4949577;28;20058;-76
2023/07/06 05:32:11;;;;;;;1.60;1.02;;;;;;;12.25;100.00;101313.47;4951061;28;20074;-74
2023/07/06 05:34:38;;;;;;;13.25;4.55;;;;;;;12.33;100.00;101320.53;4949874;28;20426;-73
2023/07/06 05:37:05;;;;;;;15.82;4.60;;;;;;;12.40;100.00;101316.94;4949641;28;20547;-74
2023/07/06 05:39:31;;;;;;;16.27;4.60;;;;;;;12.44;100.00;101326.03;4950050;28;20094;-75
2023/07/06 05:41:58;;;;;;;15.18;4.30;;;;;;;12.50;100.00;101322.38;4949478;28;20058;-74
2023/07/06 05:44:24;;;;;;;14.77;4.43;;;;;;;12.56;100.00;101322.72;4941974;28;20075;-75
2023/07/06 05:46:51;;;;;;;12.05;4.13;;;;;;;12.61;100.00;101330.63;4946312;28;20051;-74
2023/07/06 05:49:17;;;;;;;17.05;4.10;;;;;;;12.73;100.00;101327.31;4941779;28;20083;-75
2023/07/06 05:51:44;;;;;;;10.98;3.03;;;;;;;12.76;100.00;101329.22;4948390;28;20063;-74
2023/07/06 05:54:10;;;;;;;6.70;2.28;;;;;;;12.85;100.00;101328.72;4946728;28;20098;-76
2023/07/06 05:56:37;;;;;;;9.27;3.17;;;;;;;12.93;100.00;101330.22;4948641;28;20051;-74
2023/07/06 05:59:04;;;;;;;3.95;1.63;;;;;;;12.92;100.00;101329.44;4947588;28;20063;-74
2023/07/06 06:01:32;;;;;;;8.23;2.22;;;;;;;13.04;100.00;101334.47;4954769;28;20083;-74
2023/07/06 06:04:01;;;;;;;6.78;2.47;;;;;;;13.10;100.00;101334.78;4955893;28;20137;-74
2023/07/06 06:06:28;;;;;;;5.63;2.25;;;;;;;13.07;100.00;101335.63;4954036;28;20498;-75
2023/07/06 06:08:54;;;;;;;7.38;2.42;;;;;;;13.17;100.00;101331.88;4955660;28;20567;-75
2023/07/06 06:11:21;;;;;;;7.93;2.05;;;;;;;13.27;100.00;101337.31;4956043;28;20458;-72
2023/07/06 06:13:49;;;;;;;7.40;1.98;;;;;;;13.35;100.00;101340.78;4949882;28;20411;-72
2023/07/06 06:16:16;;;;;;;16.60;4.32;;;;;;;13.46;100.00;101344.25;4951986;28;20066;-76
2023/07/06 06:18:44;;;;;;;13.60;4.00;;;;;;;13.49;100.00;101348.97;4954586;28;20067;-72
2023/07/06 06:21:10;;;;;;;17.27;4.63;;;;;;;13.62;100.00;101355.56;4954801;28;20055;-73
2023/07/06 06:23:37;;;;;;;9.18;2.97;;;;;;;13.66;100.00;101357.09;4949065;28;20055;-75
2023/07/06 06:26:04;;;;;;;10.77;1.55;;;;;;;13.64;100.00;101362.31;4952701;28;20079;-73
2023/07/06 06:28:30;;;;;;;10.80;2.88;;;;;;;13.69;100.00;101369.44;4950251;28;20147;-77
2023/07/06 06:30:57;;;;;;;12.77;3.17;;;;;;;13.82;100.00;101373.22;4950117;28;20101;-79
2023/07/06 06:33:23;;;;;;;18.25;4.07;;;;;;;13.87;100.00;101367.16;4951287;28;20110;-75
2023/07/06 06:35:50;;;;;;;15.10;3.95;;;;;;;13.99;100.00;101369.34;4956520;28;20090;-73
2023/07/06 06:38:17;;;;;;;12.70;4.00;;;;;;;14.10;100.00;101369.94;4950581;28;20053;-73
2023/07/06 06:40:44;;;;;;;5.85;2.30;;;;;;;14.04;100.00;101383.63;4947324;28;20493;-73
2023/07/06 06:43:11;;;;;;;14.60;4.13;;;;;;;14.04;100.00;101375.22;4948564;28;20051;-74
2023/07/06 06:45:39;;;;;;;2.63;1.20;;;;;;;13.98;100.00;101376.91;4951971;28;20059;-70
2023/07/06 06:48:06;;;;;;;11.75;3.58;;;;;;;14.01;100.00;101369.72;4948314;28;20058;-73
2023/07/06 06:50:32;;;;;;;13.70;4.30;;;;;;;14.24;100.00;101373.28;4952495;28;20652;-73
2023/07/06 06:52:59;;;;;;;16.45;4.32;;;;;;;14.37;100.00;101373.44;4950996;28;20051;-72
2023/07/06 06:55:26;;;;;;;17.00;4.35;;;;;;;14.35;100.00;101376.66;4954049;28;20082;-72
2023/07/06 06:57:53;;;;;;;6.60;1.63;;;;;;;14.20;100.00;101382.94;4955144;28;20055;-72
2023/07/06 07:00:20;;;;;;;15.00;4.82;;;;;;;14.36;100.00;101371.88;4951397;28;20053;-73
2023/07/06 07:02:46;;;;;;;4.30;2.20;;;;;;;14.24;100.00;101378.88;4946796;28;20047;-72
2023/07/06 07:05:15;;;;;;;9.77;2.35;;;;;;;14.34;100.00;101377.09;4951699;28;20537;-73
2023/07/06 07:07:42;;;;;;;11.02;2.85;;;;;;;14.37;100.00;101376.25;4952506;28;20051;-74
2023/07/06 07:10:10;;;;;;;13.57;3.95;;;;;;;14.56;100.00;101372.72;4950028;28;20063;-74
2023/07/06 07:12:41;;;;;;;6.47;2.08;;;;;;;14.44;100.00;101378.94;4945415;28;20058;-72
2023/07/06 07:15:09;;;;;;;9.73;2.42;;;;;;;14.52;100.00;101380.41;4951952;28;20083;-74
2023/07/06 07:17:37;;;;;;;17.30;4.30;;;;;;;14.55;100.00;101380.31;4946385;28;20130;-74
2023/07/06 07:20:05;;;;;;;10.90;2.50;;;;;;;14.66;100.00;101389.28;4948690;28;20051;-72
2023/07/06 07:22:32;;;;;;;6.13;1.88;;;;;;;14.76;100.00;101381.91;4939269;28;20114;-74
2023/07/06 07:24:59;;;;;;;9.10;2.42;;;;;;;14.81;100.00;101375.81;4950353;28;20461;-72
2023/07/06 07:27:28;;;;;;;15.57;3.90;;;;;;;14.86;100.00;101384.50;4942970;28;20079;-72
2023/07/06 07:29:54;;;;;;;4.13;1.42;;;;;;;14.91;100.00;101383.19;4947417;28;20058;-75
2023/07/06 07:32:21;;;;;;;13.68;3.22;;;;;;;14.89;100.00;101386.44;4942896;28;20126;-73
2023/07/06 07:34:50;;;;;;;7.18;1.77;;;;;;;14.95;100.00;101381.09;4946904;28;20061;-72
2023/07/06 07:37:21;;;;;;;11.05;2.85;;;;;;;14.92;100.00;101398.75;4948842;28;20086;-73
2023/07/06 07:39:48;;;;;;;7.07;2.17;;;;;;;15.04;100.00;101386.94;4948543;28;20058;-75
2023/07/06 07:42:16;;;;;;;4.78;1.90;;;;;;;15.02;100.00;101395.75;4949146;28;20047;-72
2023/07/06 07:44:46;;;;;;;6.15;2.10;;;;;;;15.16;100.00;101389.09;4949433;28;20118;-71
2023/07/06 07:47:18;;;;;;;16.60;3.67;;;;;;;15.29;100.00;101392.78;4949357;28;20153;-72
2023/07/06 07:49:46;;;;;;;14.70;3.78;;;;;;;15.45;100.00;101386.44;4950481;29;20051;-73
2023/07/06 07:52:13;;;;;;;8.35;2.75;;;;;;;15.41;100.00;101380.94;4936937;28;20066;-72
2023/07/06 07:54:42;;;;;;;15.80;3.78;;;;;;;15.49;100.00;101396.34;4944964;28;21292;-73
2023/07/06 07:57:10;;;;;;;20.05;3.85;;;;;;;15.52;100.00;101386.31;4946911;28;20059;-73
2023/07/06 07:59:36;;;;;;;3.85;0.70;;;;;;;15.53;100.00;101387.88;4947516;28;20051;-73
2023/07/06 08:02:03;;;;;;;5.50;2.03;;;;;;;15.66;100.00;101395.16;4948496;28;20043;-72
2023/07/06 08:04:30;;;;;;;16.08;3.38;;;;;;;15.75;100.00;101394.56;4947608;28;20090;-73
2023/07/06 08:06:56;;;;;;;16.83;4.38;;;;;;;15.72;100.00;101393.41;4940951;28;20062;-74
2023/07/06 08:09:23;;;;;;;7.20;2.20;;;;;;;15.64;100.00;101391.22;4937945;28;20114;-72
2023/07/06 08:11:50;;;;;;;6.40;2.22;;;;;;;15.83;100.00;101382.72;4936581;28;20125;-72
2023/07/06 08:14:34;;;;;;;4.28;2.05;;;;;;;15.84;100.00;101400.34;4936461;28;20055;-73
2023/07/06 08:17:01;;;;;;;12.95;3.90;;;;;;;16.14;100.00;101385.97;4943495;28;20647;-73
2023/07/06 08:19:28;;;;;;;8.05;1.55;;;;;;;15.99;100.00;101395.97;4958412;28;20043;-72
2023/07/06 08:22:14;;;;;;;16.63;4.15;;;;;;;16.16;100.00;101386.31;4941359;28;20129;-76
2023/07/06 08:24:41;;;;;;;4.03;1.08;;;;;;;16.22;100.00;101393.78;4935311;28;20478;-71
2023/07/06 08:27:07;;;;;;;4.40;1.60;;;;;;;16.19;100.00;101408.69;4935829;28;20139;-72
2023/07/06 08:29:34;;;;;;;6.53;2.35;;;;;;;16.40;100.00;101404.53;4935400;28;20055;-71
2023/07/06 08:32:03;;;;;;;10.73;3.08;;;;;;;16.42;100.00;101397.28;4937292;28;20047;-71
2023/07/06 08:34:30;;;;;;;10.73;2.90;;;;;;;16.52;100.00;101392.59;4946249;28;20055;-69
2023/07/06 08:36:56;;;;;;;17.33;3.10;;;;;;;16.58;100.00;101393.66;4951011;28;20047;-71
2023/07/06 08:39:25;;;;;;;7.93;2.58;;;;;;;16.79;100.00;101402.28;4943716;28;20500;-72
2023/07/06 08:41:52;;;;;;;5.30;1.75;;;;;;;16.70;100.00;101407.72;4943699;28;20050;-73
2023/07/06 08:44:21;;;;;;;13.68;3.35;;;;;;;16.74;100.00;101402.81;4940406;28;20437;-70
2023/07/06 08:46:49;;;;;;;9.43;2.10;;;;;;;16.86;100.00;101398.47;4947323;28;20090;-71
2023/07/06 08:49:32;;;;;;;10.55;2.38;;;;;;;17.21;100.00;101406.69;4950843;28;20137;-71
2023/07/06 08:52:02;;;;;;;13.23;3.42;;;;;;;17.33;100.00;101408.75;4949141;28;20057;-72
2023/07/06 08:54:30;;;;;;;1.48;1.15;;;;;;;17.11;100.00;101407.78;4954239;28;20051;-72
2023/07/06 08:56:59;;;;;;;9.15;2.90;;;;;;;17.30;100.00;101406.03;4949265;28;20085;-73
2023/07/06 08:59:37;;;;;;;13.48;2.63;;;;;;;17.40;100.00;101410.53;4948724;28;20051;-71
2023/07/06 09:02:09;;;;;;;18.10;3.38;;;;;;;17.49;100.00;101418.31;4945630;28;20061;-74
2023/07/06 09:04:37;;;;;;;9.18;3.55;;;;;;;17.69;100.00;101416.06;4949111;28;20078;-71
2023/07/06 09:07:04;;;;;;;8.43;1.98;;;;;;;17.63;100.00;101415.03;4951145;28;20130;-73
2023/07/06 09:09:34;;;;;;;4.05;1.65;;;;;;;17.75;100.00;101409.41;4949010;28;20089;-74
2023/07/06 09:12:13;;;;;;;4.20;1.90;;;;;;;17.77;100.00;101403.34;4942615;28;20040;-69
2023/07/06 09:14:43;;;;;;;9.38;2.65;;;;;;;17.90;100.00;101404.13;4940723;28;20526;-72
2023/07/06 09:17:16;;;;;;;2.33;1.25;;;;;;;17.87;100.00;101408.63;4942908;28;20059;-71
2023/07/06 09:19:44;;;;;;;6.53;2.22;;;;;;;17.94;100.00;101405.63;4946273;28;20161;-72
2023/07/06 09:22:11;;;;;;;12.73;3.08;;;;;;;18.02;100.00;101415.41;4946503;28;20370;-72
2023/07/06 09:24:38;;;;;;;13.90;3.90;;;;;;;18.07;100.00;101402.78;4947477;28;20094;-71
2023/07/06 09:27:10;;;;;;;6.47;1.90;;;;;;;18.05;100.00;101406.06;4945296;28;20105;-74
2023/07/06 09:29:37;;;;;;;10.95;3.10;;;;;;;18.30;100.00;101402.41;4949495;28;20043;-72
2023/07/06 09:32:13;;;;;;;17.17;3.25;;;;;;;18.53;100.00;101402.00;4949520;28;20055;-74
2023/07/06 09:34:45;;;;;;;13.73;2.95;;;;;;;18.80;100.00;101405.09;4946454;28;20146;-75
2023/07/06 09:37:17;;;;;;;13.68;3.72;;;;;;;18.92;100.00;101407.84;4945792;28;20047;-73
2023/07/06 09:39:59;;;;;;;8.98;2.53;;;;;;;18.94;100.00;101408.16;4946287;28;20579;-74
2023/07/06 09:42:28;;;;;;;7.38;2.10;;;;;;;18.97;100.00;101403.66;4945731;28;20131;-74
2023/07/06 09:44:54;;;;;;;2.15;0.98;;;;;;;18.90;100.00;101410.31;4942351;28;20074;-71
2023/07/06 09:47:22;;;;;;;9.80;2.70;;;;;;;18.88;100.00;101409.19;4947907;28;20075;-71
2023/07/06 09:49:59;;;;;;;5.75;2.53;;;;;;;18.95;100.00;101397.66;4950254;28;20442;-73
2023/07/06 09:52:26;;;;;;;15.70;3.40;;;;;;;19.22;100.00;101397.84;4948891;28;20184;-72
2023/07/06 09:55:00;;;;;;;9.15;1.92;;;;;;;19.23;100.00;101421.97;4949493;28;20078;-71
2023/07/06 09:57:30;;;;;;;12.70;2.58;;;;;;;19.15;100.00;101403.75;4949677;28;20047;-74
2023/07/06 09:59:58;;;;;;;8.75;1.58;;;;;;;19.00;100.00;101411.94;4946333;28;20109;-73
2023/07/06 10:02:31;;;;;;;5.03;1.10;;;;;;;18.74;100.00;101407.66;4949546;28;20039;-72
2023/07/06 10:05:10;;;;;;;6.22;2.28;;;;;;;19.08;100.00;101412.47;4949995;28;20089;-71
2023/07/06 10:07:55;;;;;;;3.08;1.17;;;;;;;19.06;100.00;101412.13;4949921;28;20047;-71
2023/07/06 10:10:30;;;;;;;2.30;0.88;;;;;;;19.22;100.00;101418.38;4933116;28;20111;-73
2023/07/06 10:13:01;;;;;;;16.90;2.95;;;;;;;19.36;100.00;101412.19;4936834;28;20047;-73
2023/07/06 10:15:43;;;;;;;14.88;3.00;;;;;;;19.56;100.00;101409.81;4943042;28;20039;-73
2023/07/06 10:18:19;;;;;;;4.63;1.83;;;;;;;19.36;100.00;101412.19;4939065;28;22410;-73
2023/07/06 10:20:56;;;;;;;7.13;1.38;;;;;;;19.57;100.00;101407.78;4946669;28;20074;-72
2023/07/06 10:23:35;;;;;;;6.60;1.55;;;;;;;19.53;100.00;101410.75;4950679;28;20101;-71
2023/07/06 10:26:28;;;;;;;9.18;2.65;;;;;;;19.62;100.00;101413.59;4945401;28;20113;-71
2023/07/06 10:29:05;;;;;;;7.55;1.63;;;;;;;19.68;100.00;101416.63;4937691;28;20601;-74
2023/07/06 10:31:43;;;;;;;8.43;2.55;;;;;;;19.71;100.00;101408.00;4946585;28;20055;-73
2023/07/06 10:34:19;;;;;;;6.93;2.38;;;;;;;19.55;100.00;101410.28;4943155;28;20059;-71
2023/07/06 10:36:47;;;;;;;6.45;2.55;;;;;;;19.78;100.00;101409.75;4941684;28;20114;-72
2023/07/06 10:39:42;;;;;;;8.18;1.95;;;;;;;19.95;100.00;101404.63;4946681;28;20047;-71
2023/07/06 10:42:32;;;;;;;1.95;1.10;;;;;;;19.80;100.00;101410.06;4948282;28;20047;-72
2023/07/06 10:45:02;;;;;;;4.72;1.85;;;;;;;19.74;100.00;101420.38;4945019;28;20055;-72
2023/07/06 10:47:29;;;;;;;5.50;2.13;;;;;;;19.75;100.00;101413.50;4945218;28;20055;-74
2023/07/06 10:50:07;;;;;;;6.30;1.80;;;;;;;19.72;100.00;101418.03;4942640;28;20055;-74
2023/07/06 10:52:40;;;;;;;5.05;1.35;;;;;;;19.86;100.00;101407.41;4943453;28;20047;-72
2023/07/06 10:55:11;;;;;;;8.07;2.80;;;;;;;20.26;100.00;101411.81;4951042;28;20490;-71
2023/07/06 10:57:44;;;;;;;6.85;2.83;;;;;;;20.51;100.00;101420.00;4946786;28;20134;-73
2023/07/06 11:00:16;;;;;;;3.90;1.27;;;;;;;20.20;100.00;101416.47;4947558;28;20158;-73
2023/07/06 11:02:45;;;;;;;6.50;2.38;;;;;;;20.31;100.00;101411.16;4944349;28;20126;-73
2023/07/06 11:05:30;;;;;;;5.32;2.08;;;;;;;20.41;100.00;101421.22;4945732;28;20523;-74
2023/07/06 11:08:05;;;;;;;10.35;2.70;;;;;;;20.77;100.00;101432.56;4946834;28;20536;-71
2023/07/06 11:10:49;;;;;;;7.13;2.10;;;;;;;20.95;100.00;101421.28;4950754;28;20090;-73
2023/07/06 11:13:20;;;;;;;9.07;2.17;;;;;;;21.31;100.00;101432.53;4950328;28;20086;-74
2023/07/06 11:15:47;;;;;;;6.43;2.33;;;;;;;21.72;100.00;101434.63;4950853;28;20083;-71
2023/07/06 11:18:23;;;;;;;5.03;2.00;;;;;;;21.95;100.00;101424.63;4942037;28;20082;-74
2023/07/06 11:20:55;;;;;;;5.28;2.00;;;;;;;21.58;100.00;101435.28;4940072;28;20142;-74
2023/07/06 11:23:30;;;;;;;1.23;0.88;;;;;;;21.01;100.00;101429.91;4944340;28;20382;-76
2023/07/06 11:25:58;;;;;;;5.13;1.27;;;;;;;21.14;100.00;101442.63;4947512;28;20102;-75